createdAt,value
2018-12-31T00:02:39.462Z,31.95
2018-12-31T00:07:47.189Z,31.66
2018-12-31T00:12:54.964Z,27.57
2018-12-31T00:18:02.702Z,27.08
2018-12-31T00:23:10.429Z,28.11
2018-12-31T00:28:18.156Z,30.00
2018-12-31T00:33:25.844Z,35.10
2018-12-31T00:38:33.490Z,38.46
2018-12-31T00:43:41.248Z,31.03
2018-12-31T00:48:48.964Z,29.69
2018-12-31T00:53:56.715Z,38.25
2018-12-31T00:59:04.400Z,27.55
2018-12-31T01:04:12.122Z,31.59
2018-12-31T01:09:19.826Z,34.84
2018-12-31T01:14:27.661Z,36.31
2018-12-31T01:19:35.409Z,37.51
2018-12-31T01:24:43.210Z,35.41
2018-12-31T01:29:50.935Z,34.40
2018-12-31T01:34:58.642Z,33.46
2018-12-31T01:40:06.358Z,33.61
2018-12-31T01:45:14.090Z,33.13
2018-12-31T01:50:21.763Z,29.69
2018-12-31T01:55:29.466Z,27.91
2018-12-31T02:00:37.107Z,22.98
2018-12-31T02:05:44.842Z,26.39
2018-12-31T02:10:52.510Z,19.14
2018-12-31T02:16:00.333Z,14.02
2018-12-31T02:21:08.030Z,13.11
2018-12-31T02:26:15.742Z,14.72
2018-12-31T02:31:23.481Z,16.32
2018-12-31T02:36:31.169Z,19.57
2018-12-31T02:41:38.821Z,21.40
2018-12-31T02:46:46.641Z,28.54
2018-12-31T02:51:54.334Z,28.78
2018-12-31T02:57:02.150Z,24.68
2018-12-31T03:02:09.798Z,23.13
2018-12-31T03:07:17.575Z,21.92
2018-12-31T03:12:25.246Z,22.99
2018-12-31T03:17:32.999Z,22.99
2018-12-31T03:22:40.692Z,20.91
2018-12-31T03:27:48.452Z,21.94
2018-12-31T03:32:56.173Z,29.56
2018-12-31T03:38:03.914Z,22.90
2018-12-31T03:43:11.585Z,25.72
2018-12-31T03:48:19.306Z,25.07
2018-12-31T03:53:26.977Z,28.41
2018-12-31T03:58:34.755Z,29.05
2018-12-31T04:03:42.444Z,30.94
2018-12-31T04:08:50.257Z,30.25
2018-12-31T04:13:57.900Z,31.41
2018-12-31T04:19:05.634Z,32.26
2018-12-31T04:24:13.304Z,32.31
2018-12-31T04:29:21.051Z,31.96
2018-12-31T04:34:28.731Z,30.03
2018-12-31T04:39:36.509Z,31.14
2018-12-31T04:44:44.144Z,31.24
2018-12-31T04:49:51.875Z,30.42
2018-12-31T04:54:59.558Z,30.14
2018-12-31T05:00:07.336Z,29.52
2018-12-31T05:05:14.996Z,30.17
2018-12-31T05:10:22.763Z,30.65
2018-12-31T05:15:30.460Z,31.49
2018-12-31T05:20:38.167Z,31.56
2018-12-31T05:25:45.842Z,33.82
2018-12-31T05:30:53.562Z,31.49
2018-12-31T05:36:01.298Z,33.79
2018-12-31T05:41:09.049Z,34.89
2018-12-31T05:46:16.743Z,36.78
2018-12-31T05:51:24.460Z,36.23
2018-12-31T05:56:32.086Z,35.50
2018-12-31T06:01:39.882Z,46.82
2018-12-31T06:06:47.569Z,36.60
2018-12-31T06:11:55.352Z,38.09
2018-12-31T06:17:03.079Z,35.80
2018-12-31T06:22:10.811Z,38.31
2018-12-31T06:27:18.477Z,37.28
2018-12-31T06:32:26.221Z,37.35
2018-12-31T06:37:33.904Z,36.44
2018-12-31T06:42:41.700Z,37.17
2018-12-31T06:47:49.410Z,36.99
2018-12-31T06:52:57.684Z,36.63
2018-12-31T06:58:04.277Z,36.77
2018-12-31T07:03:12.088Z,32.69
2018-12-31T07:08:19.758Z,32.76
2018-12-31T07:13:29.368Z,38.51
2018-12-31T07:18:34.795Z,31.84
2018-12-31T07:23:42.537Z,31.47
2018-12-31T07:28:50.228Z,32.83
2018-12-31T07:33:58.000Z,35.24
2018-12-31T07:39:05.719Z,31.80
2018-12-31T07:44:13.468Z,31.89
2018-12-31T07:49:21.196Z,32.57
2018-12-31T07:54:28.911Z,34.81
2018-12-31T07:59:36.599Z,30.56
2018-12-31T08:04:44.320Z,28.82
2018-12-31T08:09:51.931Z,28.71
2018-12-31T08:14:59.729Z,28.69
2018-12-31T08:20:07.426Z,28.27
2018-12-31T08:25:15.200Z,33.24
2018-12-31T08:30:22.967Z,30.17
2018-12-31T08:35:30.753Z,35.85
2018-12-31T08:40:38.470Z,29.16
2018-12-31T08:45:46.214Z,28.52
2018-12-31T08:50:53.897Z,24.87
2018-12-31T08:56:01.566Z,26.03
2018-12-31T09:01:09.292Z,25.88
2018-12-31T09:06:17.018Z,26.16
2018-12-31T09:11:24.687Z,27.73
2018-12-31T09:16:32.419Z,27.79
2018-12-31T09:21:40.092Z,28.27
2018-12-31T09:26:47.862Z,29.53
2018-12-31T09:31:55.532Z,28.90
2018-12-31T09:37:03.342Z,27.55
2018-12-31T09:42:11.021Z,26.66
2018-12-31T09:47:18.782Z,28.37
2018-12-31T09:52:26.467Z,28.59
2018-12-31T09:57:34.252Z,28.26
2018-12-31T10:02:41.888Z,28.48
2018-12-31T10:07:49.634Z,28.57
2018-12-31T10:12:57.305Z,29.42
2018-12-31T10:18:05.009Z,33.39
2018-12-31T10:23:12.702Z,34.34
2018-12-31T10:28:20.541Z,28.04
2018-12-31T10:33:28.272Z,25.39
2018-12-31T10:38:36.028Z,23.60
2018-12-31T10:43:43.714Z,22.49
2018-12-31T10:48:51.501Z,22.63
2018-12-31T10:53:59.178Z,21.81
2018-12-31T10:59:06.860Z,21.28
2018-12-31T11:04:14.541Z,22.44
2018-12-31T11:09:22.334Z,23.20
2018-12-31T11:14:29.995Z,23.62
2018-12-31T11:19:37.798Z,23.50
2018-12-31T11:24:45.511Z,22.18
2018-12-31T11:29:53.299Z,21.07
2018-12-31T11:35:01.085Z,21.04
2018-12-31T11:40:08.731Z,21.47
2018-12-31T11:45:16.350Z,20.95
2018-12-31T11:50:24.124Z,20.48
2018-12-31T11:55:31.801Z,20.38
2018-12-31T12:00:39.551Z,19.10
2018-12-31T12:05:47.185Z,19.08
2018-12-31T12:10:54.965Z,19.58
2018-12-31T12:16:02.617Z,20.22
2018-12-31T12:21:10.375Z,22.50
2018-12-31T12:26:18.089Z,25.07
2018-12-31T12:31:25.886Z,28.11
2018-12-31T12:36:33.520Z,34.77
2018-12-31T12:41:41.288Z,28.89
2018-12-31T12:46:48.972Z,34.93
2018-12-31T12:51:56.697Z,28.93
2018-12-31T12:57:04.388Z,27.70
2018-12-31T13:02:12.182Z,28.71
2018-12-31T13:07:19.862Z,28.42
2018-12-31T13:12:27.651Z,28.76
2018-12-31T13:17:35.343Z,28.41
2018-12-31T13:22:43.086Z,28.27
2018-12-31T13:27:50.760Z,28.11
2018-12-31T13:32:58.481Z,28.43
2018-12-31T13:38:06.198Z,28.24
2018-12-31T13:43:13.931Z,27.26
2018-12-31T13:48:21.657Z,27.04
2018-12-31T13:53:29.371Z,26.21
2018-12-31T13:58:37.032Z,26.33
2018-12-31T14:03:44.809Z,25.06
2018-12-31T14:08:52.548Z,24.47
2018-12-31T14:14:00.265Z,23.14
2018-12-31T14:19:07.949Z,22.80
2018-12-31T14:24:15.651Z,22.24
2018-12-31T14:29:23.261Z,21.64
2018-12-31T14:34:30.983Z,21.03
2018-12-31T14:39:38.693Z,20.04
2018-12-31T14:44:46.418Z,20.04
2018-12-31T14:49:54.088Z,19.90
2018-12-31T14:55:01.883Z,19.28
2018-12-31T15:00:09.532Z,19.20
2018-12-31T15:06:09.617Z,21.60
2018-12-31T15:11:17.298Z,20.07
2018-12-31T15:16:25.090Z,22.00
2018-12-31T15:21:32.775Z,21.73
2018-12-31T15:26:40.504Z,27.28
2018-12-31T15:31:48.202Z,22.59
2018-12-31T15:36:55.930Z,22.32
2018-12-31T15:42:03.617Z,22.57
2018-12-31T15:47:11.416Z,22.65
2018-12-31T15:52:19.083Z,21.67
2018-12-31T15:57:26.848Z,21.51
2018-12-31T16:02:34.506Z,22.04
2018-12-31T16:07:45.930Z,22.07
2018-12-31T16:12:49.388Z,22.42
2018-12-31T16:17:57.105Z,22.22
2018-12-31T16:23:04.735Z,22.63
2018-12-31T16:28:12.472Z,28.30
2018-12-31T16:33:20.219Z,22.65
2018-12-31T16:38:27.933Z,22.67
2018-12-31T16:43:35.601Z,23.22
2018-12-31T16:48:43.380Z,22.59
2018-12-31T16:53:50.987Z,22.76
2018-12-31T16:58:58.778Z,22.60
2018-12-31T17:04:06.518Z,22.88
2018-12-31T17:09:14.274Z,22.39
2018-12-31T17:14:21.942Z,23.16
2018-12-31T17:19:29.683Z,28.52
2018-12-31T17:24:37.319Z,29.31
2018-12-31T17:29:45.086Z,24.36
2018-12-31T17:34:52.801Z,23.92
2018-12-31T17:40:00.544Z,24.82
2018-12-31T17:45:08.160Z,24.69
2018-12-31T17:50:15.873Z,24.82
2018-12-31T17:55:23.545Z,24.60
2018-12-31T18:00:31.371Z,30.55
2018-12-31T18:05:39.100Z,26.39
2018-12-31T18:10:46.853Z,23.14
2018-12-31T18:15:54.537Z,20.64
2018-12-31T18:21:02.217Z,20.28
2018-12-31T18:26:09.915Z,16.52
2018-12-31T18:31:17.645Z,16.30
2018-12-31T18:36:25.334Z,17.13
2018-12-31T18:41:33.070Z,14.62
2018-12-31T18:46:40.738Z,15.90
2018-12-31T18:51:49.057Z,14.24
2018-12-31T18:56:55.635Z,14.09
2018-12-31T19:02:03.427Z,13.99
2018-12-31T19:07:11.154Z,14.33
2018-12-31T19:12:18.891Z,18.34
2018-12-31T19:17:26.609Z,16.28
2018-12-31T19:22:34.318Z,15.98
2018-12-31T19:27:41.938Z,15.85
2018-12-31T19:32:49.680Z,15.84
2018-12-31T19:37:57.376Z,16.67
2018-12-31T19:43:05.161Z,18.06
2018-12-31T19:48:12.812Z,18.34
2018-12-31T19:53:20.562Z,19.67
2018-12-31T19:58:28.270Z,19.29
2018-12-31T20:03:36.010Z,19.52
2018-12-31T20:08:43.672Z,20.29
2018-12-31T20:13:51.418Z,25.79
2018-12-31T20:18:59.110Z,22.15
2018-12-31T20:24:06.802Z,22.42
2018-12-31T20:29:14.518Z,26.35
2018-12-31T20:34:22.215Z,22.39
2018-12-31T20:39:29.873Z,23.14
2018-12-31T20:44:37.607Z,23.52
2018-12-31T20:49:45.332Z,30.70
2018-12-31T20:54:53.088Z,25.55
2018-12-31T21:00:00.811Z,24.97
2018-12-31T21:05:08.526Z,25.21
2018-12-31T21:10:16.206Z,23.64
2018-12-31T21:15:24.000Z,28.08
2018-12-31T21:20:31.661Z,23.63
2018-12-31T21:25:39.419Z,22.55
2018-12-31T21:30:47.069Z,21.79
2018-12-31T21:35:54.795Z,21.82
2018-12-31T21:41:02.458Z,21.72
2018-12-31T21:46:10.240Z,24.80
2018-12-31T21:51:17.885Z,49.58
2018-12-31T21:56:25.631Z,35.99
2018-12-31T22:01:33.328Z,27.89
2018-12-31T22:06:41.078Z,28.70
2018-12-31T22:11:48.758Z,30.25
2018-12-31T22:16:56.494Z,38.84
2018-12-31T22:22:04.166Z,30.91
2018-12-31T22:27:11.903Z,31.99
2018-12-31T22:32:19.545Z,32.30
2018-12-31T22:37:27.338Z,30.93
2018-12-31T22:42:35.080Z,32.02
2018-12-31T22:47:42.848Z,30.83
2018-12-31T22:52:50.563Z,31.98
2018-12-31T22:57:58.281Z,30.21
2018-12-31T23:03:05.958Z,38.73
2018-12-31T23:08:13.714Z,51.06
2018-12-31T23:13:21.401Z,200.57
2018-12-31T23:18:29.176Z,116.07
2018-12-31T23:23:36.844Z,118.08
2018-12-31T23:28:52.297Z,81.08
2018-12-31T23:33:51.735Z,81.25
2018-12-31T23:39:05.133Z,105.24
2018-12-31T23:44:06.747Z,90.26
2018-12-31T23:49:14.540Z,84.97
2018-12-31T23:54:22.242Z,82.84
2018-12-31T23:59:29.930Z,84.45
